sensor_id;sensor_type;location;lat;lon;timestamp;pressure;altitude;pressure_sealevel;temperature;humidity
13593;BME280;6867;50.998;4.250;2023-01-29T00:01:10;102736.94;;;-0.22;75.18
13593;BME280;6867;50.998;4.250;2023-01-29T00:03:37;102719.69;;;-0.28;74.41
13593;BME280;6867;50.998;4.250;2023-01-29T00:06:06;102712.03;;;-0.33;74.44
13593;BME280;6867;50.998;4.250;2023-01-29T00:08:34;102701.91;;;-0.40;74.59
13593;BME280;6867;50.998;4.250;2023-01-29T00:11:01;102696.03;;;-0.45;74.34
13593;BME280;6867;50.998;4.250;2023-01-29T00:13:28;102703.97;;;-0.45;74.63
13593;BME280;6867;50.998;4.250;2023-01-29T00:15:56;102698.19;;;-0.52;74.99
13593;BME280;6867;50.998;4.250;2023-01-29T00:18:24;102696.56;;;-0.55;75.02
13593;BME280;6867;50.998;4.250;2023-01-29T00:20:51;102703.56;;;-0.54;74.92
13593;BME280;6867;50.998;4.250;2023-01-29T00:23:19;102704.41;;;-0.53;75.10
13593;BME280;6867;50.998;4.250;2023-01-29T00:25:46;102694.00;;;-0.56;74.89
13593;BME280;6867;50.998;4.250;2023-01-29T00:28:13;102695.91;;;-0.58;74.86
13593;BME280;6867;50.998;4.250;2023-01-29T00:30:41;102698.63;;;-0.60;74.71
13593;BME280;6867;50.998;4.250;2023-01-29T00:33:08;102702.03;;;-0.58;74.77
13593;BME280;6867;50.998;4.250;2023-01-29T00:35:38;102695.72;;;-0.55;74.76
13593;BME280;6867;50.998;4.250;2023-01-29T00:38:06;102693.06;;;-0.55;74.95
13593;BME280;6867;50.998;4.250;2023-01-29T00:40:36;102682.59;;;-0.57;74.52
13593;BME280;6867;50.998;4.250;2023-01-29T00:43:18;102673.25;;;-0.62;74.28
13593;BME280;6867;50.998;4.250;2023-01-29T00:46:03;102672.59;;;-0.66;74.78
13593;BME280;6867;50.998;4.250;2023-01-29T00:48:31;102677.19;;;-0.69;74.95
13593;BME280;6867;50.998;4.250;2023-01-29T00:50:57;102674.66;;;-0.71;74.86
13593;BME280;6867;50.998;4.250;2023-01-29T00:53:24;102666.72;;;-0.71;74.49
13593;BME280;6867;50.998;4.250;2023-01-29T00:55:52;102664.72;;;-0.67;74.65
13593;BME280;6867;50.998;4.250;2023-01-29T00:58:19;102656.91;;;-0.69;74.47
13593;BME280;6867;50.998;4.250;2023-01-29T01:00:46;102659.56;;;-0.69;74.77
13593;BME280;6867;50.998;4.250;2023-01-29T01:03:13;102660.50;;;-0.70;74.89
13593;BME280;6867;50.998;4.250;2023-01-29T01:05:39;102659.56;;;-0.69;74.51
13593;BME280;6867;50.998;4.250;2023-01-29T01:08:07;102657.94;;;-0.71;74.61
13593;BME280;6867;50.998;4.250;2023-01-29T01:10:59;102655.66;;;-0.78;74.91
13593;BME280;6867;50.998;4.250;2023-01-29T01:13:26;102653.44;;;-0.85;74.92
13593;BME280;6867;50.998;4.250;2023-01-29T01:15:53;102655.34;;;-0.87;74.56
13593;BME280;6867;50.998;4.250;2023-01-29T01:18:20;102650.97;;;-0.88;74.69
13593;BME280;6867;50.998;4.250;2023-01-29T01:20:47;102656.34;;;-0.90;74.39
13593;BME280;6867;50.998;4.250;2023-01-29T01:23:17;102658.47;;;-0.96;74.87
13593;BME280;6867;50.998;4.250;2023-01-29T01:25:44;102664.97;;;-1.02;74.90
13593;BME280;6867;50.998;4.250;2023-01-29T01:28:13;102666.84;;;-1.04;75.35
13593;BME280;6867;50.998;4.250;2023-01-29T01:30:39;102662.69;;;-1.08;74.83
13593;BME280;6867;50.998;4.250;2023-01-29T01:33:06;102665.22;;;-1.07;75.11
13593;BME280;6867;50.998;4.250;2023-01-29T01:35:33;102661.81;;;-1.09;75.59
13593;BME280;6867;50.998;4.250;2023-01-29T01:38:00;102669.66;;;-1.07;75.12
13593;BME280;6867;50.998;4.250;2023-01-29T01:40:27;102658.50;;;-1.12;75.08
13593;BME280;6867;50.998;4.250;2023-01-29T01:42:55;102658.50;;;-1.12;75.16
13593;BME280;6867;50.998;4.250;2023-01-29T01:45:26;102662.75;;;-1.10;75.22
13593;BME280;6867;50.998;4.250;2023-01-29T01:47:58;102652.28;;;-1.11;75.56
13593;BME280;6867;50.998;4.250;2023-01-29T01:50:29;102653.25;;;-1.12;75.27
13593;BME280;6867;50.998;4.250;2023-01-29T01:52:59;102653.50;;;-1.17;75.15
13593;BME280;6867;50.998;4.250;2023-01-29T01:55:29;102658.84;;;-1.18;75.14
13593;BME280;6867;50.998;4.250;2023-01-29T01:58:03;102663.00;;;-1.14;75.43
13593;BME280;6867;50.998;4.250;2023-01-29T02:00:33;102665.63;;;-1.14;75.46
13593;BME280;6867;50.998;4.250;2023-01-29T02:03:00;102673.50;;;-1.13;75.07
13593;BME280;6867;50.998;4.250;2023-01-29T02:05:45;102662.25;;;-1.16;75.59
13593;BME280;6867;50.998;4.250;2023-01-29T02:08:36;102665.91;;;-1.19;75.34
13593;BME280;6867;50.998;4.250;2023-01-29T02:11:21;102660.78;;;-1.22;75.02
13593;BME280;6867;50.998;4.250;2023-01-29T02:13:48;102668.69;;;-1.22;75.02
13593;BME280;6867;50.998;4.250;2023-01-29T02:16:19;102670.41;;;-1.21;75.16
13593;BME280;6867;50.998;4.250;2023-01-29T02:18:46;102673.97;;;-1.22;75.69
13593;BME280;6867;50.998;4.250;2023-01-29T02:21:35;102671.16;;;-1.19;75.50
13593;BME280;6867;50.998;4.250;2023-01-29T02:27:20;102686.84;;;-1.16;75.71
13593;BME280;6867;50.998;4.250;2023-01-29T02:29:56;102693.66;;;-1.12;75.49
13593;BME280;6867;50.998;4.250;2023-01-29T02:32:30;102702.06;;;-1.05;75.37
13593;BME280;6867;50.998;4.250;2023-01-29T02:35:10;102709.38;;;-0.94;75.64
13593;BME280;6867;50.998;4.250;2023-01-29T02:37:59;102718.91;;;-0.76;75.74
13593;BME280;6867;50.998;4.250;2023-01-29T02:40:30;102722.19;;;-0.57;76.00
13593;BME280;6867;50.998;4.250;2023-01-29T02:43:05;102725.66;;;-0.40;76.22
13593;BME280;6867;50.998;4.250;2023-01-29T02:45:42;102741.66;;;-0.28;76.48
13593;BME280;6867;50.998;4.250;2023-01-29T02:48:14;102747.75;;;-0.11;76.26
13593;BME280;6867;50.998;4.250;2023-01-29T02:50:45;102760.13;;;0.03;76.42
13593;BME280;6867;50.998;4.250;2023-01-29T02:53:16;102753.00;;;0.19;77.08
13593;BME280;6867;50.998;4.250;2023-01-29T02:55:47;102754.25;;;0.28;77.14
13593;BME280;6867;50.998;4.250;2023-01-29T02:58:19;102752.66;;;0.39;77.00
13593;BME280;6867;50.998;4.250;2023-01-29T03:00:54;102744.28;;;0.47;76.67
13593;BME280;6867;50.998;4.250;2023-01-29T03:03:27;102740.28;;;0.54;77.22
13593;BME280;6867;50.998;4.250;2023-01-29T03:06:00;102754.94;;;0.74;76.91
13593;BME280;6867;50.998;4.250;2023-01-29T03:08:32;102734.53;;;0.76;76.40
13593;BME280;6867;50.998;4.250;2023-01-29T03:11:07;102733.22;;;0.69;76.67
13593;BME280;6867;50.998;4.250;2023-01-29T03:13:42;102727.63;;;0.73;76.86
13593;BME280;6867;50.998;4.250;2023-01-29T03:16:17;102722.06;;;0.78;76.91
13593;BME280;6867;50.998;4.250;2023-01-29T03:18:50;102735.84;;;0.83;77.20
13593;BME280;6867;50.998;4.250;2023-01-29T03:21:23;102728.66;;;0.85;76.65
13593;BME280;6867;50.998;4.250;2023-01-29T03:24:09;102750.00;;;0.96;76.95
13593;BME280;6867;50.998;4.250;2023-01-29T03:26:55;102740.34;;;0.95;76.95
13593;BME280;6867;50.998;4.250;2023-01-29T03:29:42;102757.56;;;1.03;76.91
13593;BME280;6867;50.998;4.250;2023-01-29T03:32:29;102754.63;;;1.07;77.03
13593;BME280;6867;50.998;4.250;2023-01-29T03:34:59;102757.75;;;1.14;77.57
13593;BME280;6867;50.998;4.250;2023-01-29T03:37:32;102751.09;;;1.21;77.32
13593;BME280;6867;50.998;4.250;2023-01-29T03:40:01;102744.75;;;1.23;77.40
13593;BME280;6867;50.998;4.250;2023-01-29T03:42:37;102742.75;;;1.27;77.63
13593;BME280;6867;50.998;4.250;2023-01-29T03:45:09;102735.84;;;1.24;77.28
13593;BME280;6867;50.998;4.250;2023-01-29T03:47:44;102733.25;;;1.37;77.41
13593;BME280;6867;50.998;4.250;2023-01-29T03:50:23;102720.03;;;1.37;77.25
13593;BME280;6867;50.998;4.250;2023-01-29T03:53:01;102701.91;;;1.31;77.00
13593;BME280;6867;50.998;4.250;2023-01-29T03:55:35;102699.44;;;1.28;76.83
13593;BME280;6867;50.998;4.250;2023-01-29T03:58:18;102698.41;;;1.31;76.68
13593;BME280;6867;50.998;4.250;2023-01-29T04:00:51;102710.16;;;1.27;76.87
13593;BME280;6867;50.998;4.250;2023-01-29T04:03:22;102704.97;;;1.38;76.89
13593;BME280;6867;50.998;4.250;2023-01-29T04:05:53;102711.50;;;1.46;76.57
13593;BME280;6867;50.998;4.250;2023-01-29T04:08:26;102705.63;;;1.41;76.29
13593;BME280;6867;50.998;4.250;2023-01-29T04:10:56;102709.69;;;1.47;76.58
13593;BME280;6867;50.998;4.250;2023-01-29T04:13:25;102713.50;;;1.43;76.69
13593;BME280;6867;50.998;4.250;2023-01-29T04:15:56;102719.22;;;1.49;76.92
13593;BME280;6867;50.998;4.250;2023-01-29T04:18:25;102711.56;;;1.45;76.80
13593;BME280;6867;50.998;4.250;2023-01-29T04:20:52;102701.44;;;1.52;77.04
13593;BME280;6867;50.998;4.250;2023-01-29T04:23:21;102705.06;;;1.51;76.96
13593;BME280;6867;50.998;4.250;2023-01-29T04:25:53;102707.47;;;1.54;77.06
13593;BME280;6867;50.998;4.250;2023-01-29T04:28:43;102704.22;;;1.63;77.07
13593;BME280;6867;50.998;4.250;2023-01-29T04:31:13;102700.41;;;1.67;77.09
13593;BME280;6867;50.998;4.250;2023-01-29T04:33:46;102693.59;;;1.63;77.04
13593;BME280;6867;50.998;4.250;2023-01-29T04:36:25;102696.91;;;1.66;77.20
13593;BME280;6867;50.998;4.250;2023-01-29T04:39:00;102694.38;;;1.65;76.97
13593;BME280;6867;50.998;4.250;2023-01-29T04:41:32;102691.28;;;1.71;77.14
13593;BME280;6867;50.998;4.250;2023-01-29T04:44:07;102693.56;;;1.77;77.15
13593;BME280;6867;50.998;4.250;2023-01-29T04:46:45;102690.47;;;1.83;77.25
13593;BME280;6867;50.998;4.250;2023-01-29T04:49:22;102690.28;;;1.86;77.21
13593;BME280;6867;50.998;4.250;2023-01-29T04:51:59;102686.00;;;1.71;77.20
13593;BME280;6867;50.998;4.250;2023-01-29T04:54:33;102690.72;;;1.80;77.21
13593;BME280;6867;50.998;4.250;2023-01-29T04:57:08;102695.78;;;1.96;77.85
13593;BME280;6867;50.998;4.250;2023-01-29T04:59:41;102681.59;;;1.97;77.09
13593;BME280;6867;50.998;4.250;2023-01-29T05:02:12;102686.59;;;1.89;77.40
13593;BME280;6867;50.998;4.250;2023-01-29T05:04:43;102688.28;;;2.03;77.23
13593;BME280;6867;50.998;4.250;2023-01-29T05:07:12;102673.09;;;2.05;76.97
13593;BME280;6867;50.998;4.250;2023-01-29T05:09:41;102677.25;;;2.09;76.99
13593;BME280;6867;50.998;4.250;2023-01-29T05:12:09;102669.72;;;2.15;76.92
13593;BME280;6867;50.998;4.250;2023-01-29T05:14:38;102661.03;;;2.13;76.46
13593;BME280;6867;50.998;4.250;2023-01-29T05:17:10;102629.66;;;1.94;76.12
13593;BME280;6867;50.998;4.250;2023-01-29T05:19:38;102638.97;;;2.13;76.21
13593;BME280;6867;50.998;4.250;2023-01-29T05:22:09;102624.78;;;2.14;75.99
13593;BME280;6867;50.998;4.250;2023-01-29T05:24:36;102615.44;;;1.70;76.55
13593;BME280;6867;50.998;4.250;2023-01-29T05:27:03;102631.31;;;1.70;77.22
13593;BME280;6867;50.998;4.250;2023-01-29T05:29:48;102624.97;;;1.72;77.38
13593;BME280;6867;50.998;4.250;2023-01-29T05:32:15;102637.59;;;1.82;77.56
13593;BME280;6867;50.998;4.250;2023-01-29T05:34:41;102631.84;;;1.75;77.43
13593;BME280;6867;50.998;4.250;2023-01-29T05:37:09;102639.81;;;1.88;77.76
13593;BME280;6867;50.998;4.250;2023-01-29T05:39:36;102645.97;;;1.88;77.77
13593;BME280;6867;50.998;4.250;2023-01-29T05:42:03;102651.38;;;1.87;78.08
13593;BME280;6867;50.998;4.250;2023-01-29T05:44:30;102648.91;;;1.84;77.82
13593;BME280;6867;50.998;4.250;2023-01-29T05:46:57;102660.47;;;1.83;78.03
13593;BME280;6867;50.998;4.250;2023-01-29T05:49:23;102669.53;;;1.93;78.07
13593;BME280;6867;50.998;4.250;2023-01-29T05:51:50;102660.50;;;1.95;78.38
13593;BME280;6867;50.998;4.250;2023-01-29T05:54:18;102659.84;;;2.05;78.60
13593;BME280;6867;50.998;4.250;2023-01-29T05:56:45;102653.69;;;1.91;78.31
13593;BME280;6867;50.998;4.250;2023-01-29T05:59:11;102659.13;;;1.90;78.26
13593;BME280;6867;50.998;4.250;2023-01-29T06:01:38;102671.00;;;2.10;78.83
13593;BME280;6867;50.998;4.250;2023-01-29T06:04:05;102659.13;;;2.15;78.29
13593;BME280;6867;50.998;4.250;2023-01-29T06:06:32;102665.25;;;2.16;78.83
13593;BME280;6867;50.998;4.250;2023-01-29T06:08:58;102653.81;;;2.15;78.96
13593;BME280;6867;50.998;4.250;2023-01-29T06:11:26;102662.06;;;2.36;78.95
13593;BME280;6867;50.998;4.250;2023-01-29T06:13:53;102633.66;;;2.13;78.42
13593;BME280;6867;50.998;4.250;2023-01-29T06:16:20;102651.69;;;2.20;78.23
13593;BME280;6867;50.998;4.250;2023-01-29T06:18:46;102661.13;;;2.37;78.97
13593;BME280;6867;50.998;4.250;2023-01-29T06:21:13;102658.25;;;2.40;78.40
13593;BME280;6867;50.998;4.250;2023-01-29T06:23:40;102652.63;;;2.32;77.92
13593;BME280;6867;50.998;4.250;2023-01-29T06:26:09;102654.88;;;2.38;78.74
13593;BME280;6867;50.998;4.250;2023-01-29T06:28:37;102652.94;;;2.40;78.12
13593;BME280;6867;50.998;4.250;2023-01-29T06:31:05;102648.91;;;2.47;78.29
13593;BME280;6867;50.998;4.250;2023-01-29T06:33:33;102642.31;;;2.53;78.39
13593;BME280;6867;50.998;4.250;2023-01-29T06:36:01;102625.03;;;2.47;77.42
13593;BME280;6867;50.998;4.250;2023-01-29T06:38:29;102630.69;;;2.43;77.41
13593;BME280;6867;50.998;4.250;2023-01-29T06:40:57;102636.78;;;2.56;77.98
13593;BME280;6867;50.998;4.250;2023-01-29T06:43:24;102623.13;;;2.37;77.04
13593;BME280;6867;50.998;4.250;2023-01-29T06:45:53;102634.56;;;2.50;76.88
13593;BME280;6867;50.998;4.250;2023-01-29T06:48:21;102629.59;;;2.45;76.79
13593;BME280;6867;50.998;4.250;2023-01-29T06:50:48;102632.16;;;2.47;77.29
13593;BME280;6867;50.998;4.250;2023-01-29T06:53:15;102621.41;;;2.48;76.96
13593;BME280;6867;50.998;4.250;2023-01-29T06:55:43;102613.03;;;2.42;76.21
13593;BME280;6867;50.998;4.250;2023-01-29T06:58:11;102612.84;;;2.45;76.54
13593;BME280;6867;50.998;4.250;2023-01-29T07:00:38;102606.13;;;2.52;76.50
13593;BME280;6867;50.998;4.250;2023-01-29T07:03:08;102623.41;;;2.58;76.50
13593;BME280;6867;50.998;4.250;2023-01-29T07:05:35;102600.44;;;2.33;76.39
13593;BME280;6867;50.998;4.250;2023-01-29T07:08:03;102589.13;;;2.18;76.03
13593;BME280;6867;50.998;4.250;2023-01-29T07:10:30;102591.88;;;2.16;76.79
13593;BME280;6867;50.998;4.250;2023-01-29T07:12:58;102605.88;;;2.31;76.63
13593;BME280;6867;50.998;4.250;2023-01-29T07:15:25;102601.44;;;2.06;76.86
13593;BME280;6867;50.998;4.250;2023-01-29T07:17:55;102600.78;;;2.28;76.56
13593;BME280;6867;50.998;4.250;2023-01-29T07:20:24;102586.75;;;2.39;76.40
13593;BME280;6867;50.998;4.250;2023-01-29T07:22:51;102601.03;;;2.49;76.28
13593;BME280;6867;50.998;4.250;2023-01-29T07:25:18;102584.84;;;2.41;75.74
13593;BME280;6867;50.998;4.250;2023-01-29T07:27:45;102587.47;;;2.41;76.29
13593;BME280;6867;50.998;4.250;2023-01-29T07:30:12;102592.97;;;2.50;76.05
13593;BME280;6867;50.998;4.250;2023-01-29T07:32:39;102583.25;;;2.38;75.72
13593;BME280;6867;50.998;4.250;2023-01-29T07:35:07;102584.16;;;2.50;75.71
13593;BME280;6867;50.998;4.250;2023-01-29T07:37:35;102594.53;;;2.66;76.37
13593;BME280;6867;50.998;4.250;2023-01-29T07:40:02;102595.56;;;2.63;75.59
13593;BME280;6867;50.998;4.250;2023-01-29T07:42:29;102596.41;;;2.77;75.99
13593;BME280;6867;50.998;4.250;2023-01-29T07:44:56;102585.03;;;2.74;75.52
13593;BME280;6867;50.998;4.250;2023-01-29T07:47:22;102562.31;;;2.46;74.81
13593;BME280;6867;50.998;4.250;2023-01-29T07:49:49;102577.88;;;2.64;74.89
13593;BME280;6867;50.998;4.250;2023-01-29T07:52:16;102593.78;;;2.88;75.00
13593;BME280;6867;50.998;4.250;2023-01-29T07:54:44;102597.53;;;2.85;75.01
13593;BME280;6867;50.998;4.250;2023-01-29T07:57:11;102593.97;;;2.97;74.70
13593;BME280;6867;50.998;4.250;2023-01-29T07:59:37;102573.38;;;2.77;74.61
13593;BME280;6867;50.998;4.250;2023-01-29T08:02:05;102577.47;;;2.81;75.02
13593;BME280;6867;50.998;4.250;2023-01-29T08:04:31;102568.09;;;2.88;74.23
13593;BME280;6867;50.998;4.250;2023-01-29T08:06:58;102572.06;;;3.07;74.08
13593;BME280;6867;50.998;4.250;2023-01-29T08:09:25;102571.69;;;3.11;74.22
13593;BME280;6867;50.998;4.250;2023-01-29T08:11:53;102552.72;;;3.05;74.01
13593;BME280;6867;50.998;4.250;2023-01-29T08:14:19;102566.25;;;3.13;73.56
13593;BME280;6867;50.998;4.250;2023-01-29T08:16:46;102557.34;;;3.14;73.42
13593;BME280;6867;50.998;4.250;2023-01-29T08:19:13;102560.72;;;3.16;73.66
13593;BME280;6867;50.998;4.250;2023-01-29T08:21:40;102556.75;;;3.21;73.66
13593;BME280;6867;50.998;4.250;2023-01-29T08:24:07;102556.09;;;3.31;73.12
13593;BME280;6867;50.998;4.250;2023-01-29T08:26:33;102545.81;;;3.26;73.56
13593;BME280;6867;50.998;4.250;2023-01-29T08:29:02;102554.84;;;3.23;73.25
13593;BME280;6867;50.998;4.250;2023-01-29T08:31:28;102553.25;;;3.21;73.21
13593;BME280;6867;50.998;4.250;2023-01-29T08:33:55;102554.75;;;3.36;73.55
13593;BME280;6867;50.998;4.250;2023-01-29T08:36:23;102534.09;;;3.29;72.51
13593;BME280;6867;50.998;4.250;2023-01-29T08:38:49;102531.59;;;3.49;72.13
13593;BME280;6867;50.998;4.250;2023-01-29T08:41:16;102526.03;;;3.41;72.26
13593;BME280;6867;50.998;4.250;2023-01-29T08:43:43;102520.75;;;3.53;71.80
13593;BME280;6867;50.998;4.250;2023-01-29T08:46:12;102523.41;;;3.64;71.52
13593;BME280;6867;50.998;4.250;2023-01-29T08:48:38;102510.25;;;3.85;71.85
13593;BME280;6867;50.998;4.250;2023-01-29T08:51:05;102491.50;;;3.75;70.41
13593;BME280;6867;50.998;4.250;2023-01-29T08:53:32;102495.25;;;3.95;70.70
13593;BME280;6867;50.998;4.250;2023-01-29T08:55:59;102488.25;;;3.94;70.59
13593;BME280;6867;50.998;4.250;2023-01-29T08:58:25;102505.03;;;4.06;70.64
13593;BME280;6867;50.998;4.250;2023-01-29T09:00:52;102486.16;;;4.09;69.89
13593;BME280;6867;50.998;4.250;2023-01-29T09:03:20;102495.56;;;4.24;69.82
13593;BME280;6867;50.998;4.250;2023-01-29T09:05:47;102480.84;;;4.20;69.98
13593;BME280;6867;50.998;4.250;2023-01-29T09:08:14;102488.16;;;4.39;69.31
13593;BME280;6867;50.998;4.250;2023-01-29T09:10:40;102474.75;;;4.40;69.08
13593;BME280;6867;50.998;4.250;2023-01-29T09:13:07;102462.56;;;4.27;68.48
13593;BME280;6867;50.998;4.250;2023-01-29T09:15:34;102463.28;;;4.17;68.47
13593;BME280;6867;50.998;4.250;2023-01-29T09:18:02;102473.91;;;4.29;69.02
13593;BME280;6867;50.998;4.250;2023-01-29T09:20:31;102468.38;;;4.20;69.20
13593;BME280;6867;50.998;4.250;2023-01-29T09:23:03;102469.34;;;4.31;68.89
13593;BME280;6867;50.998;4.250;2023-01-29T09:25:30;102461.81;;;4.36;68.54
13593;BME280;6867;50.998;4.250;2023-01-29T09:27:57;102456.97;;;4.41;68.80
13593;BME280;6867;50.998;4.250;2023-01-29T09:30:24;102457.31;;;4.47;68.54
13593;BME280;6867;50.998;4.250;2023-01-29T09:32:50;102445.84;;;4.36;68.13
13593;BME280;6867;50.998;4.250;2023-01-29T09:35:17;102452.03;;;4.25;68.39
13593;BME280;6867;50.998;4.250;2023-01-29T09:37:47;102463.66;;;4.24;68.49
13593;BME280;6867;50.998;4.250;2023-01-29T09:40:23;102455.88;;;4.43;68.30
13593;BME280;6867;50.998;4.250;2023-01-29T09:42:54;102443.06;;;4.37;67.70
13593;BME280;6867;50.998;4.250;2023-01-29T09:45:24;102454.91;;;4.44;68.45
13593;BME280;6867;50.998;4.250;2023-01-29T09:47:55;102454.16;;;4.42;68.35
13593;BME280;6867;50.998;4.250;2023-01-29T09:50:27;102457.53;;;4.56;68.20
13593;BME280;6867;50.998;4.250;2023-01-29T09:52:58;102450.25;;;4.58;68.30
13593;BME280;6867;50.998;4.250;2023-01-29T09:55:30;102449.91;;;4.72;68.08
13593;BME280;6867;50.998;4.250;2023-01-29T09:58:04;102437.53;;;4.61;67.25
13593;BME280;6867;50.998;4.250;2023-01-29T10:00:36;102435.13;;;4.79;67.02
13593;BME280;6867;50.998;4.250;2023-01-29T10:03:14;102437.59;;;4.92;67.18
13593;BME280;6867;50.998;4.250;2023-01-29T10:06:14;102422.53;;;5.02;66.52
13593;BME280;6867;50.998;4.250;2023-01-29T10:09:12;102415.84;;;5.08;66.88
13593;BME280;6867;50.998;4.250;2023-01-29T10:11:45;102421.69;;;5.22;66.51
13593;BME280;6867;50.998;4.250;2023-01-29T10:14:21;102413.03;;;5.09;66.13
13593;BME280;6867;50.998;4.250;2023-01-29T10:17:02;102401.09;;;5.04;65.83
13593;BME280;6867;50.998;4.250;2023-01-29T10:19:44;102403.22;;;5.10;66.20
13593;BME280;6867;50.998;4.250;2023-01-29T10:22:30;102408.91;;;5.26;65.94
13593;BME280;6867;50.998;4.250;2023-01-29T10:25:04;102389.59;;;5.34;65.35
13593;BME280;6867;50.998;4.250;2023-01-29T10:27:32;102389.09;;;5.49;64.67
13593;BME280;6867;50.998;4.250;2023-01-29T10:30:02;102378.72;;;5.46;64.62
13593;BME280;6867;50.998;4.250;2023-01-29T10:32:35;102365.13;;;5.59;64.24
13593;BME280;6867;50.998;4.250;2023-01-29T10:35:03;102353.22;;;5.54;64.32
13593;BME280;6867;50.998;4.250;2023-01-29T10:37:36;102343.88;;;5.29;64.44
13593;BME280;6867;50.998;4.250;2023-01-29T10:40:17;102336.53;;;5.21;64.40
13593;BME280;6867;50.998;4.250;2023-01-29T10:42:47;102360.53;;;5.61;64.35
13593;BME280;6867;50.998;4.250;2023-01-29T10:45:21;102341.47;;;5.75;64.10
13593;BME280;6867;50.998;4.250;2023-01-29T10:48:23;102338.69;;;5.87;63.62
13593;BME280;6867;50.998;4.250;2023-01-29T10:51:01;102322.97;;;5.93;63.40
13593;BME280;6867;50.998;4.250;2023-01-29T10:53:42;102314.25;;;5.91;62.61
13593;BME280;6867;50.998;4.250;2023-01-29T10:56:35;102304.03;;;5.96;62.66
13593;BME280;6867;50.998;4.250;2023-01-29T10:59:09;102304.75;;;5.98;62.36
13593;BME280;6867;50.998;4.250;2023-01-29T11:01:42;102317.66;;;5.93;62.99
13593;BME280;6867;50.998;4.250;2023-01-29T11:04:10;102289.31;;;5.92;62.31
13593;BME280;6867;50.998;4.250;2023-01-29T11:06:38;102320.31;;;5.93;62.54
13593;BME280;6867;50.998;4.250;2023-01-29T11:09:08;102295.78;;;6.19;62.22
13593;BME280;6867;50.998;4.250;2023-01-29T11:11:42;102265.19;;;5.94;61.83
13593;BME280;6867;50.998;4.250;2023-01-29T11:14:12;102287.34;;;6.23;62.19
13593;BME280;6867;50.998;4.250;2023-01-29T11:16:43;102252.78;;;6.32;61.19
13593;BME280;6867;50.998;4.250;2023-01-29T11:19:10;102239.81;;;6.46;60.97
13593;BME280;6867;50.998;4.250;2023-01-29T11:21:50;102231.31;;;6.70;60.59
13593;BME280;6867;50.998;4.250;2023-01-29T11:24:18;102224.59;;;6.57;60.77
13593;BME280;6867;50.998;4.250;2023-01-29T11:26:48;102199.31;;;6.51;60.46
13593;BME280;6867;50.998;4.250;2023-01-29T11:29:32;102191.47;;;6.49;60.24
13593;BME280;6867;50.998;4.250;2023-01-29T11:32:03;102211.94;;;6.59;60.55
13593;BME280;6867;50.998;4.250;2023-01-29T11:34:30;102186.53;;;6.55;60.37
13593;BME280;6867;50.998;4.250;2023-01-29T11:36:58;102197.91;;;6.57;60.38
13593;BME280;6867;50.998;4.250;2023-01-29T11:39:26;102176.75;;;6.73;59.82
13593;BME280;6867;50.998;4.250;2023-01-29T11:41:57;102183.91;;;6.72;60.20
13593;BME280;6867;50.998;4.250;2023-01-29T11:44:30;102187.50;;;6.91;59.90
13593;BME280;6867;50.998;4.250;2023-01-29T11:47:09;102178.28;;;7.03;59.81
13593;BME280;6867;50.998;4.250;2023-01-29T11:49:38;102156.25;;;7.37;58.97
13593;BME280;6867;50.998;4.250;2023-01-29T11:52:09;102127.19;;;7.60;58.03
13593;BME280;6867;50.998;4.250;2023-01-29T11:54:38;102114.50;;;7.44;58.24
13593;BME280;6867;50.998;4.250;2023-01-29T11:57:21;102124.97;;;7.55;58.00
13593;BME280;6867;50.998;4.250;2023-01-29T11:59:51;102109.78;;;7.38;58.13
13593;BME280;6867;50.998;4.250;2023-01-29T12:02:27;102085.81;;;7.46;57.59
13593;BME280;6867;50.998;4.250;2023-01-29T12:04:57;102093.88;;;7.54;57.60
13593;BME280;6867;50.998;4.250;2023-01-29T12:07:26;102090.09;;;7.57;57.74
13593;BME280;6867;50.998;4.250;2023-01-29T12:09:55;102055.41;;;7.73;56.52
13593;BME280;6867;50.998;4.250;2023-01-29T12:12:36;102047.31;;;7.39;56.97
13593;BME280;6867;50.998;4.250;2023-01-29T12:15:14;102040.00;;;7.67;56.64
13593;BME280;6867;50.998;4.250;2023-01-29T12:17:44;102039.09;;;7.84;56.65
13593;BME280;6867;50.998;4.250;2023-01-29T12:20:17;102034.13;;;7.63;56.26
13593;BME280;6867;50.998;4.250;2023-01-29T12:22:52;102025.00;;;8.08;55.48
13593;BME280;6867;50.998;4.250;2023-01-29T12:25:37;102006.94;;;7.76;55.13
13593;BME280;6867;50.998;4.250;2023-01-29T12:28:18;102006.69;;;7.87;55.75
13593;BME280;6867;50.998;4.250;2023-01-29T12:30:56;102016.13;;;7.47;56.33
13593;BME280;6867;50.998;4.250;2023-01-29T12:33:35;102005.75;;;7.70;56.31
13593;BME280;6867;50.998;4.250;2023-01-29T12:36:10;102010.44;;;7.77;56.24
13593;BME280;6867;50.998;4.250;2023-01-29T12:38:39;101971.13;;;7.69;55.95
13593;BME280;6867;50.998;4.250;2023-01-29T12:41:13;101994.13;;;7.88;56.47
13593;BME280;6867;50.998;4.250;2023-01-29T12:43:48;101975.75;;;7.59;56.14
13593;BME280;6867;50.998;4.250;2023-01-29T12:46:21;101989.88;;;7.77;56.05
13593;BME280;6867;50.998;4.250;2023-01-29T12:48:49;101958.34;;;7.55;55.96
13593;BME280;6867;50.998;4.250;2023-01-29T12:51:19;101981.31;;;7.65;56.27
13593;BME280;6867;50.998;4.250;2023-01-29T12:53:52;101967.66;;;7.77;55.67
13593;BME280;6867;50.998;4.250;2023-01-29T12:56:26;101970.66;;;7.73;56.10
13593;BME280;6867;50.998;4.250;2023-01-29T12:58:58;101935.16;;;7.29;56.02
13593;BME280;6867;50.998;4.250;2023-01-29T13:01:27;101946.63;;;7.82;56.06
13593;BME280;6867;50.998;4.250;2023-01-29T13:04:00;101954.41;;;7.67;55.65
13593;BME280;6867;50.998;4.250;2023-01-29T13:06:32;101933.47;;;7.54;55.60
13593;BME280;6867;50.998;4.250;2023-01-29T13:09:02;101946.06;;;7.70;56.37
13593;BME280;6867;50.998;4.250;2023-01-29T13:11:35;101933.50;;;7.62;55.82
13593;BME280;6867;50.998;4.250;2023-01-29T13:14:08;101950.09;;;7.74;55.87
13593;BME280;6867;50.998;4.250;2023-01-29T13:16:42;101960.00;;;7.82;56.40
13593;BME280;6867;50.998;4.250;2023-01-29T13:19:20;101962.00;;;7.45;56.50
13593;BME280;6867;50.998;4.250;2023-01-29T13:21:52;101960.94;;;7.72;56.54
13593;BME280;6867;50.998;4.250;2023-01-29T13:24:22;101979.88;;;7.45;57.23
13593;BME280;6867;50.998;4.250;2023-01-29T13:26:50;101969.38;;;7.52;56.89
13593;BME280;6867;50.998;4.250;2023-01-29T13:29:22;101966.34;;;7.81;56.53
13593;BME280;6867;50.998;4.250;2023-01-29T13:31:50;101936.47;;;7.93;55.81
13593;BME280;6867;50.998;4.250;2023-01-29T13:34:21;101943.44;;;7.78;56.09